Terminal Aerodrome Forecast
Issued by NWS

Home | Current Version | Previous Version | Text Only | Print | Product List | Glossary On
Versions: 1 2 3 4 5 6 7 8 9 10 11 12 13 14 15 16 17 18 19 20 21 22
000
FTUS46 KPDT 212300
TAFALW
TAF
KALW 212320Z 2200/2224 23015G22KT P6SM SCT070
     FM220200 14007KT P6SM SCT180
     FM221100 14007KT P6SM BKN120
     FM221500 17011KT P6SM BKN100=

USA.gov is the U.S. government's official web portal to all federal, state and local government web resources and services.